Time;durP1;ratioP1;P1;durP2;ratioP2;P2;SDS_P1;SDS_P2;PMS_P1;PMS_P2;Temp;Humidity;BMP_temperature;BMP_pressure;BME280_temperature;BME280_humidity;BME280_pressure;Samples;Min_cycle;Max_cycle;Signal;HPM_P1;HPM_P2
2021/10/03 00:00:50;;;;;;;32.23;22.07;;;9.80;99.90;9.50;96862.00;;;;5085010;28;20578;-75
2021/10/03 00:03:47;;;;;;;31.83;20.83;;;9.80;99.90;9.40;96858.00;;;;5087563;28;20434;-75
2021/10/03 00:06:37;;;;;;;31.60;19.80;;;9.80;99.90;9.40;96856.00;;;;5086997;28;20578;-76
2021/10/03 00:09:28;;;;;;;31.70;18.80;;;9.80;99.90;9.40;96853.00;;;;5086356;28;20195;-76
2021/10/03 00:12:18;;;;;;;27.03;19.53;;;9.70;99.90;9.30;96860.00;;;;5085411;28;20227;-76
2021/10/03 00:15:11;;;;;;;26.83;19.83;;;9.70;99.90;9.30;96850.00;;;;5075851;28;20583;-76
2021/10/03 00:18:00;;;;;;;31.37;19.50;;;9.70;99.90;9.30;96851.00;;;;5086229;28;20697;-76
2021/10/03 00:20:49;;;;;;;28.43;20.30;;;9.60;99.90;9.30;96851.00;;;;5086094;28;20199;-76
2021/10/03 00:23:38;;;;;;;36.23;20.83;;;9.60;99.90;9.20;96855.00;;;;5085612;28;20587;-76
2021/10/03 00:26:29;;;;;;;29.97;19.83;;;9.60;99.90;9.00;96857.00;;;;5086644;28;20202;-76
2021/10/03 00:29:18;;;;;;;28.63;20.67;;;9.60;99.90;9.10;96853.00;;;;5085606;28;20196;-76
2021/10/03 00:32:07;;;;;;;36.30;20.83;;;9.50;99.90;9.10;96849.00;;;;5085544;28;20219;-77
2021/10/03 00:34:56;;;;;;;34.13;21.20;;;9.50;99.90;9.30;96852.00;;;;5086797;28;20214;-76
2021/10/03 00:37:45;;;;;;;33.93;20.87;;;9.50;99.90;9.50;96847.00;;;;5073119;28;20203;-77
2021/10/03 00:40:37;;;;;;;31.17;20.83;;;9.60;99.90;9.50;96840.00;;;;5084685;28;20686;-76
2021/10/03 00:43:28;;;;;;;33.83;21.27;;;9.70;99.90;9.50;96839.00;;;;5086027;28;20711;-77
2021/10/03 00:46:17;;;;;;;28.10;19.80;;;9.70;99.90;9.10;96834.00;;;;5086397;28;20576;-76
2021/10/03 00:49:06;;;;;;;32.70;20.30;;;9.70;99.90;8.90;96837.00;;;;5085787;28;20208;-77
2021/10/03 00:51:55;;;;;;;29.70;19.67;;;9.50;99.90;9.00;96828.00;;;;5084690;28;20694;-76
2021/10/03 00:54:44;;;;;;;30.70;19.67;;;9.50;99.90;9.00;96832.00;;;;5086876;28;20679;-77
2021/10/03 00:57:33;;;;;;;27.40;20.13;;;9.40;99.90;8.80;96817.00;;;;5086406;28;20697;-77
2021/10/03 01:00:27;;;;;;;36.70;20.97;;;9.40;99.90;8.80;96824.00;;;;5084493;28;20670;-76
2021/10/03 01:03:17;;;;;;;32.80;22.00;;;9.30;99.90;8.80;96820.00;;;;5085115;28;20575;-77
2021/10/03 01:06:07;;;;;;;28.37;19.80;;;9.30;99.90;8.60;96816.00;;;;5083834;28;20191;-77
2021/10/03 01:08:56;;;;;;;30.57;19.67;;;9.20;99.90;8.70;96807.00;;;;5084595;28;20701;-77
2021/10/03 01:11:44;;;;;;;37.10;21.77;;;9.10;99.90;8.60;96807.00;;;;5084298;28;20223;-76
2021/10/03 01:14:34;;;;;;;33.63;21.40;;;9.10;99.90;8.50;96810.00;;;;5071487;28;20229;-76
2021/10/03 01:17:24;;;;;;;33.53;20.93;;;9.00;99.90;8.50;96803.00;;;;5085746;28;20218;-76
2021/10/03 01:20:13;;;;;;;29.93;19.63;;;9.00;99.90;8.30;96803.00;;;;5074291;28;20654;-77
2021/10/03 01:23:04;;;;;;;32.93;22.23;;;8.90;99.90;8.40;96792.00;;;;5084940;28;20216;-77
2021/10/03 01:25:53;;;;;;;33.00;21.63;;;8.90;99.90;8.50;96795.00;;;;5085662;28;20591;-77
2021/10/03 01:28:42;;;;;;;27.57;19.63;;;8.80;99.90;8.50;96788.00;;;;5085600;28;20203;-77
2021/10/03 01:31:33;;;;;;;28.37;18.97;;;8.80;99.90;8.50;96785.00;;;;5084160;28;20234;-77
2021/10/03 01:34:23;;;;;;;34.07;20.63;;;8.80;99.90;8.50;96790.00;;;;5085690;28;20223;-78
2021/10/03 01:37:12;;;;;;;34.70;21.20;;;8.80;99.90;8.40;96785.00;;;;5084892;28;20650;-77
2021/10/03 01:40:05;;;;;;;31.30;20.97;;;8.80;99.90;8.30;96782.00;;;;5082994;28;20216;-77
2021/10/03 01:42:54;;;;;;;34.67;21.20;;;8.80;99.90;8.30;96780.00;;;;5085131;28;20942;-77
2021/10/03 01:45:43;;;;;;;30.20;20.23;;;8.80;99.90;8.20;96780.00;;;;5084268;28;20218;-76
2021/10/03 01:48:41;;;;;;;33.50;19.60;;;8.70;99.90;8.10;96778.00;;;;5085732;28;20208;-77
2021/10/03 01:51:30;;;;;;;31.53;20.23;;;8.60;99.90;8.00;96774.00;;;;5084662;28;20238;-77
2021/10/03 01:54:19;;;;;;;29.30;21.33;;;8.50;99.90;8.00;96778.00;;;;5085269;28;20246;-76
2021/10/03 01:57:11;;;;;;;36.67;22.50;;;8.50;99.90;8.20;96771.00;;;;5085477;28;20207;-76
2021/10/03 02:00:00;;;;;;;33.70;21.50;;;8.50;99.90;8.40;96766.00;;;;5084425;28;20527;-77
2021/10/03 02:02:59;;;;;;;33.77;20.07;;;8.60;99.90;8.10;96770.00;;;;5085538;28;20226;-76
2021/10/03 02:05:48;;;;;;;29.97;19.20;;;8.60;99.90;7.90;96758.00;;;;5085241;28;20195;-78
2021/10/03 02:08:37;;;;;;;33.27;22.13;;;9.00;99.90;7.90;96754.00;;;;5082899;28;20203;-76
2021/10/03 02:11:29;;;;;;;31.10;20.63;;;8.50;99.90;8.00;96752.00;;;;5078611;28;20227;-76
2021/10/03 02:14:26;;;;;;;34.70;21.37;;;8.50;99.90;8.20;96764.00;;;;5072294;28;20586;-76
2021/10/03 02:17:15;;;;;;;33.43;20.53;;;8.50;99.90;8.20;96761.00;;;;5085298;28;20214;-77
2021/10/03 02:20:06;;;;;;;30.67;20.87;;;8.50;99.90;8.00;96757.00;;;;5089601;28;20213;-76
2021/10/03 02:22:55;;;;;;;29.63;20.27;;;8.40;99.90;8.00;96752.00;;;;5089675;28;20618;-78
2021/10/03 02:25:45;;;;;;;31.30;20.80;;;8.40;99.90;8.10;96753.00;;;;5089022;28;20572;-77
2021/10/03 02:28:34;;;;;;;35.33;21.37;;;8.40;99.90;8.00;96749.00;;;;5088167;28;20199;-79
2021/10/03 02:31:24;;;;;;;33.07;20.83;;;8.40;99.90;8.00;96740.00;;;;5087907;28;20227;-77
2021/10/03 02:34:14;;;;;;;33.07;21.27;;;8.40;99.90;8.00;96742.00;;;;5088674;28;20276;-77
2021/10/03 02:37:03;;;;;;;32.10;20.43;;;8.40;99.90;7.90;96732.00;;;;5088433;28;20570;-77
2021/10/03 02:39:52;;;;;;;33.97;21.20;;;8.30;99.90;8.00;96733.00;;;;5076685;28;20593;-77
2021/10/03 02:42:42;;;;;;;31.23;21.17;;;8.30;99.90;7.90;96730.00;;;;5088661;28;20223;-76
2021/10/03 02:45:31;;;;;;;30.40;19.20;;;8.30;99.90;7.50;96729.00;;;;5087854;28;20213;-76
2021/10/03 02:48:24;;;;;;;33.37;20.30;;;8.20;99.90;7.60;96724.00;;;;5089117;28;20195;-76
2021/10/03 02:51:12;;;;;;;27.80;18.93;;;8.20;99.90;7.80;96734.00;;;;5086345;28;20223;-77
2021/10/03 02:54:01;;;;;;;32.70;21.10;;;8.10;99.90;7.80;96720.00;;;;5085408;28;20223;-76
2021/10/03 02:56:50;;;;;;;32.30;20.27;;;8.20;99.90;8.00;96720.00;;;;5087821;28;20209;-77
2021/10/03 02:59:39;;;;;;;29.80;19.37;;;8.20;99.90;7.90;96721.00;;;;5086784;28;20203;-77
2021/10/03 03:02:28;;;;;;;29.73;19.70;;;8.20;99.90;7.80;96730.00;;;;5088709;28;20219;-76
2021/10/03 03:05:18;;;;;;;27.63;17.90;;;8.20;99.90;7.70;96722.00;;;;5086832;28;20199;-76
2021/10/03 03:08:07;;;;;;;32.33;19.07;;;8.20;99.90;7.60;96719.00;;;;5088629;28;20203;-77
2021/10/03 03:10:56;;;;;;;27.07;19.10;;;8.10;99.90;7.60;96715.00;;;;5086059;28;20210;-76
2021/10/03 03:13:45;;;;;;;34.33;21.33;;;8.10;99.90;7.60;96719.00;;;;5077262;28;20211;-76
2021/10/03 03:16:34;;;;;;;36.47;21.10;;;8.00;99.90;7.70;96723.00;;;;5075267;28;20200;-77
2021/10/03 03:19:23;;;;;;;31.47;21.03;;;8.00;99.90;7.80;96726.00;;;;5088113;28;20200;-77
2021/10/03 03:22:14;;;;;;;36.23;21.53;;;8.00;99.90;7.80;96715.00;;;;5087541;28;20230;-76
2021/10/03 03:25:06;;;;;;;30.40;19.57;;;8.10;99.90;7.70;96726.00;;;;5088785;28;20200;-76
2021/10/03 03:27:55;;;;;;;27.63;18.50;;;8.10;99.90;7.50;96719.00;;;;5088193;28;20578;-77
2021/10/03 03:30:44;;;;;;;28.73;19.40;;;8.00;99.90;7.30;96724.00;;;;5086686;28;20203;-76
2021/10/03 03:33:33;;;;;;;33.17;21.53;;;7.90;99.90;7.40;96710.00;;;;5087796;28;20230;-76
2021/10/03 03:36:22;;;;;;;29.33;18.90;;;7.90;99.90;7.50;96710.00;;;;5087679;28;20203;-76
2021/10/03 03:39:12;;;;;;;29.90;19.17;;;7.90;99.90;7.40;96713.00;;;;5085874;28;20709;-77
2021/10/03 03:42:01;;;;;;;29.80;19.20;;;7.80;99.90;7.30;96719.00;;;;5087854;28;20223;-76
2021/10/03 03:44:50;;;;;;;25.70;16.70;;;7.80;99.90;7.40;96716.00;;;;5087009;28;20601;-78
2021/10/03 03:47:40;;;;;;;33.03;19.50;;;7.80;99.90;7.30;96705.00;;;;5087801;28;20199;-76
2021/10/03 03:50:31;;;;;;;28.67;17.37;;;7.80;99.90;7.10;96704.00;;;;5085472;28;20203;-76
2021/10/03 03:53:20;;;;;;;30.37;18.60;;;7.70;99.90;7.20;96711.00;;;;5087559;28;20199;-78
2021/10/03 03:56:10;;;;;;;26.37;18.97;;;7.70;99.90;7.20;96702.00;;;;5087404;28;20763;-75
2021/10/03 03:58:59;;;;;;;32.27;20.23;;;7.60;99.90;7.30;96705.00;;;;5087778;28;20210;-77
2021/10/03 04:01:48;;;;;;;31.80;19.90;;;7.60;99.90;7.00;96703.00;;;;5086797;28;20227;-76
2021/10/03 04:04:37;;;;;;;27.57;18.50;;;7.60;99.90;6.80;96698.00;;;;5087926;28;20235;-77
2021/10/03 04:07:26;;;;;;;35.37;20.20;;;7.50;99.90;6.80;96696.00;;;;5087947;28;20210;-77
2021/10/03 04:10:15;;;;;;;35.73;22.40;;;7.40;99.90;6.90;96697.00;;;;5086791;28;20199;-77
2021/10/03 04:13:06;;;;;;;29.43;20.07;;;7.40;99.90;7.10;96698.00;;;;5083841;28;20543;-76
2021/10/03 04:15:55;;;;;;;29.63;20.20;;;7.40;99.90;7.10;96695.00;;;;5081987;28;20231;-77
2021/10/03 04:18:43;;;;;;;31.87;17.47;;;7.40;99.90;7.10;96697.00;;;;5086921;28;20199;-77
2021/10/03 04:21:32;;;;;;;28.60;19.17;;;7.40;99.90;7.20;96700.00;;;;5086554;28;20219;-76
2021/10/03 04:24:21;;;;;;;28.77;19.57;;;7.50;99.90;7.10;96701.00;;;;5088177;28;20223;-77
2021/10/03 04:27:10;;;;;;;36.57;19.00;;;7.50;99.90;7.10;96700.00;;;;5087865;28;20200;-77
2021/10/03 04:30:00;;;;;;;33.43;19.50;;;7.50;99.90;7.20;96697.00;;;;5086665;28;20203;-77
2021/10/03 04:32:49;;;;;;;33.00;20.93;;;7.50;99.90;7.20;96701.00;;;;5088003;28;20223;-79
2021/10/03 04:35:38;;;;;;;28.27;18.47;;;7.60;99.90;7.20;96697.00;;;;5087621;28;20243;-77
2021/10/03 04:38:27;;;;;;;31.50;19.20;;;7.50;99.90;7.10;96690.00;;;;5087228;28;20195;-77
2021/10/03 04:41:15;;;;;;;28.53;18.87;;;7.50;99.90;7.00;96704.00;;;;5085697;28;20238;-77
2021/10/03 04:44:05;;;;;;;27.77;18.37;;;7.50;99.90;6.70;96701.00;;;;5084631;28;20203;-76
2021/10/03 04:46:55;;;;;;;30.33;17.03;;;7.40;99.90;6.90;96707.00;;;;5086724;28;20207;-78
2021/10/03 04:49:44;;;;;;;28.50;18.63;;;7.40;99.90;6.90;96709.00;;;;5084998;28;20194;-77
2021/10/03 04:52:33;;;;;;;26.33;18.53;;;7.40;99.90;6.60;96701.00;;;;5086758;28;20223;-76
2021/10/03 04:55:22;;;;;;;27.50;17.53;;;7.30;99.90;6.70;96705.00;;;;5085628;28;20230;-77
2021/10/03 04:58:11;;;;;;;29.57;17.97;;;7.20;99.90;6.80;96707.00;;;;5087330;28;20233;-76
2021/10/03 05:01:00;;;;;;;29.33;19.13;;;7.20;99.90;6.90;96709.00;;;;5086236;28;20223;-77
2021/10/03 05:03:51;;;;;;;29.83;18.43;;;7.20;99.90;6.80;96710.00;;;;5087283;28;20233;-77
2021/10/03 05:06:40;;;;;;;32.90;18.80;;;7.20;99.90;6.80;96710.00;;;;5086926;28;20210;-78
2021/10/03 05:09:29;;;;;;;27.37;19.53;;;7.20;99.90;6.90;96708.00;;;;5087460;28;20207;-77
2021/10/03 05:12:18;;;;;;;28.20;19.13;;;7.30;99.90;6.90;96710.00;;;;5075492;28;20215;-77
2021/10/03 05:15:08;;;;;;;25.77;16.57;;;7.30;99.90;6.70;96708.00;;;;5075373;28;20310;-77
2021/10/03 05:17:57;;;;;;;24.83;15.97;;;7.30;99.90;6.60;96717.00;;;;5086405;28;20304;-76
2021/10/03 05:20:47;;;;;;;31.63;18.47;;;7.20;99.90;6.60;96712.00;;;;5085765;28;20210;-77
2021/10/03 05:23:36;;;;;;;29.07;18.00;;;7.20;99.90;6.80;96706.00;;;;5085953;28;20282;-79
2021/10/03 05:26:25;;;;;;;26.70;17.77;;;7.20;99.90;7.00;96702.00;;;;5086865;28;20263;-76
2021/10/03 05:29:14;;;;;;;29.53;18.73;;;7.20;99.90;6.90;96701.00;;;;5086111;28;20297;-76
2021/10/03 05:32:03;;;;;;;27.30;19.23;;;7.30;99.90;6.80;96698.00;;;;5085428;28;20238;-77
2021/10/03 05:34:51;;;;;;;28.03;17.43;;;7.30;99.90;6.60;96692.00;;;;5075183;28;20203;-77
2021/10/03 05:37:42;;;;;;;24.83;17.77;;;7.30;99.90;6.70;96692.00;;;;5086364;28;20573;-76
2021/10/03 05:40:31;;;;;;;26.23;17.33;;;7.30;99.90;6.60;96697.00;;;;5083649;28;20943;-76
2021/10/03 05:43:20;;;;;;;28.17;16.67;;;7.20;99.90;6.70;96692.00;;;;5086013;28;20297;-77
2021/10/03 05:46:10;;;;;;;28.50;16.87;;;7.20;99.90;6.70;96690.00;;;;5086565;28;20267;-76
2021/10/03 05:48:59;;;;;;;23.77;17.50;;;7.20;99.90;6.90;96700.00;;;;5085421;28;20585;-76
2021/10/03 05:51:48;;;;;;;27.97;18.37;;;7.20;99.90;6.90;96701.00;;;;5084680;28;20217;-76
2021/10/03 05:54:38;;;;;;;31.90;20.57;;;7.30;99.90;7.00;96701.00;;;;5082492;28;20199;-76
2021/10/03 05:57:27;;;;;;;31.27;20.40;;;7.40;99.90;7.20;96695.00;;;;5084675;28;20483;-77
2021/10/03 06:00:16;;;;;;;29.07;18.77;;;7.50;99.90;7.10;96699.00;;;;5083615;28;20649;-77
2021/10/03 06:03:05;;;;;;;30.53;18.57;;;7.50;99.90;7.20;96703.00;;;;5084241;28;20219;-76
2021/10/03 06:05:54;;;;;;;28.30;18.97;;;7.60;99.90;7.30;96701.00;;;;5084169;28;20203;-77
2021/10/03 06:08:43;;;;;;;31.93;18.37;;;7.60;99.90;7.50;96706.00;;;;5086550;28;20237;-76
2021/10/03 06:11:33;;;;;;;27.37;17.43;;;7.70;99.90;7.40;96692.00;;;;5085613;28;20713;-77
2021/10/03 06:14:22;;;;;;;28.87;18.00;;;7.80;99.90;7.40;96692.00;;;;5072440;28;20211;-78
2021/10/03 06:17:11;;;;;;;25.90;17.33;;;7.80;99.90;7.30;96699.00;;;;5084756;28;20233;-75
2021/10/03 06:20:00;;;;;;;28.03;18.47;;;7.80;99.90;7.30;96704.00;;;;5084918;28;20581;-75
2021/10/03 06:22:49;;;;;;;29.17;19.03;;;7.80;99.90;7.60;96706.00;;;;5084784;28;20223;-75
2021/10/03 06:25:38;;;;;;;30.90;17.77;;;7.80;99.90;7.60;96704.00;;;;5084618;28;20188;-76
2021/10/03 06:28:28;;;;;;;30.97;18.03;;;7.90;99.90;7.70;96705.00;;;;5083329;28;20199;-76
2021/10/03 06:31:17;;;;;;;29.50;18.90;;;8.00;99.90;7.70;96696.00;;;;5078508;28;20216;-75
2021/10/03 06:34:05;;;;;;;33.60;20.27;;;8.00;99.90;7.60;96699.00;;;;5083944;28;20256;-75
2021/10/03 06:36:54;;;;;;;29.80;18.73;;;8.10;99.90;7.80;96704.00;;;;5084900;28;20227;-75
2021/10/03 06:39:43;;;;;;;27.03;16.70;;;8.10;99.90;7.80;96706.00;;;;5083525;28;20226;-74
2021/10/03 06:42:32;;;;;;;27.03;18.20;;;8.20;99.90;8.10;96701.00;;;;5085586;28;20613;-74
2021/10/03 06:45:23;;;;;;;35.33;20.07;;;8.30;99.90;8.30;96712.00;;;;5085529;28;20589;-74
2021/10/03 06:48:13;;;;;;;29.50;19.17;;;8.40;99.90;8.30;96714.00;;;;5085439;28;20211;-75
2021/10/03 06:51:02;;;;;;;31.53;18.63;;;8.50;99.90;8.30;96711.00;;;;5083767;28;20227;-77
2021/10/03 06:53:51;;;;;;;26.57;17.43;;;8.80;99.90;8.40;96710.00;;;;5080058;28;20542;-75
2021/10/03 06:56:40;;;;;;;28.67;19.13;;;8.60;99.90;8.50;96708.00;;;;5081334;28;20238;-73
2021/10/03 06:59:31;;;;;;;28.90;18.60;;;8.70;99.90;8.60;96714.00;;;;5072647;28;20196;-73
2021/10/03 07:02:24;;;;;;;30.93;20.23;;;8.80;99.90;8.60;96710.00;;;;5074916;28;20228;-72
2021/10/03 07:05:14;;;;;;;32.30;20.20;;;8.90;99.90;8.70;96707.00;;;;5072226;28;20195;-74
2021/10/03 07:08:06;;;;;;;30.57;18.20;;;9.00;99.90;8.70;96705.00;;;;5087673;28;20209;-74
2021/10/03 07:10:55;;;;;;;32.27;19.27;;;9.00;99.90;8.80;96702.00;;;;5086259;28;20206;-73
2021/10/03 07:13:44;;;;;;;29.40;19.50;;;9.10;99.90;8.90;96698.00;;;;5084315;28;20201;-72
2021/10/03 07:16:33;;;;;;;29.70;19.50;;;9.10;99.90;9.10;96699.00;;;;5081037;28;20218;-73
2021/10/03 07:19:24;;;;;;;38.47;20.80;;;9.30;99.90;9.20;96701.00;;;;5088646;28;20696;-73
2021/10/03 07:22:13;;;;;;;30.80;18.87;;;9.40;99.90;9.40;96701.00;;;;5088772;28;20222;-73
2021/10/03 07:25:02;;;;;;;27.47;19.53;;;9.60;99.90;9.50;96703.00;;;;5085526;28;20203;-74
2021/10/03 07:27:51;;;;;;;32.33;20.67;;;9.60;99.90;9.50;96697.00;;;;5088829;28;20191;-73
2021/10/03 07:30:40;;;;;;;32.77;20.90;;;9.70;99.90;9.80;96701.00;;;;5086284;28;20206;-73
2021/10/03 07:33:28;;;;;;;33.33;20.37;;;9.80;99.90;10.10;96694.00;;;;5085753;28;20203;-73
2021/10/03 07:36:19;;;;;;;36.77;19.97;;;10.00;99.90;10.30;96692.00;;;;5085599;28;20227;-72
2021/10/03 07:39:08;;;;;;;31.63;20.83;;;10.20;99.90;10.60;96688.00;;;;5086581;28;20226;-73
2021/10/03 07:41:57;;;;;;;30.83;19.23;;;10.40;99.90;10.80;96690.00;;;;5082486;28;20234;-75
2021/10/03 07:44:46;;;;;;;29.93;21.03;;;10.60;99.90;11.00;96693.00;;;;5088387;28;20191;-75
2021/10/03 07:47:35;;;;;;;33.97;19.13;;;;;11.00;96700.00;;;;5087526;28;20222;-75
2021/10/03 07:50:25;;;;;;;28.47;18.57;;;11.00;99.90;11.20;96697.00;;;;5085166;28;20203;-74
2021/10/03 07:53:15;;;;;;;27.87;18.30;;;11.10;99.90;11.20;96705.00;;;;5087303;28;20207;-73
2021/10/03 07:56:05;;;;;;;27.23;17.97;;;11.30;99.90;11.40;96702.00;;;;5084897;28;20192;-73
2021/10/03 07:58:53;;;;;;;26.83;19.90;;;11.40;99.90;11.50;96699.00;;;;5081616;28;20211;-74
2021/10/03 08:01:42;;;;;;;26.63;17.90;;;11.60;99.90;11.70;96698.00;;;;5082816;28;20223;-73
2021/10/03 08:04:31;;;;;;;27.03;18.87;;;11.70;99.90;12.00;96697.00;;;;5086651;28;20268;-73
2021/10/03 08:07:20;;;;;;;26.73;17.73;;;11.90;99.90;12.50;96696.00;;;;5086662;28;21732;-73
2021/10/03 08:10:11;;;;;;;23.50;17.50;;;12.00;99.90;12.90;96696.00;;;;5086394;28;20264;-73
2021/10/03 08:12:59;;;;;;;25.63;17.13;;;12.30;99.90;13.20;96699.00;;;;5085049;28;20227;-72
2021/10/03 08:15:48;;;;;;;21.07;16.07;;;12.60;99.90;13.40;96689.00;;;;5084536;28;20662;-72
2021/10/03 08:18:37;;;;;;;25.13;17.17;;;12.90;99.90;13.50;96693.00;;;;5084151;28;20211;-73
2021/10/03 08:21:28;;;;;;;25.00;16.17;;;13.10;99.90;13.90;96699.00;;;;5083497;28;20219;-73
2021/10/03 08:24:17;;;;;;;23.37;16.33;;;13.40;99.90;14.10;96691.00;;;;5086366;28;20218;-71
2021/10/03 08:27:10;;;;;;;21.63;16.27;;;13.50;99.90;14.40;96695.00;;;;5086324;28;20207;-72
2021/10/03 08:29:59;;;;;;;20.13;14.13;;;13.80;99.90;14.60;96694.00;;;;5085691;28;20191;-73
2021/10/03 08:32:48;;;;;;;20.20;15.87;;;14.00;99.90;14.70;96694.00;;;;5078119;28;20227;-73
2021/10/03 08:35:36;;;;;;;21.03;15.87;;;14.20;99.90;14.80;96684.00;;;;5085720;28;20202;-73
2021/10/03 08:38:25;;;;;;;19.63;14.67;;;14.50;99.90;15.10;96686.00;;;;5084571;28;20241;-72
2021/10/03 08:41:14;;;;;;;19.93;14.97;;;14.60;99.90;15.40;96693.00;;;;5081827;28;20243;-73
2021/10/03 08:44:05;;;;;;;20.37;15.00;;;14.80;99.90;15.70;96689.00;;;;5085451;28;20200;-74
2021/10/03 08:46:55;;;;;;;21.20;13.80;;;15.00;99.90;15.90;96685.00;;;;5086010;28;20203;-73
2021/10/03 08:49:44;;;;;;;17.97;14.23;;;15.30;99.90;16.00;96694.00;;;;5077231;28;20202;-73
2021/10/03 08:52:33;;;;;;;19.67;15.63;;;15.50;99.90;16.20;96692.00;;;;5078890;28;20223;-73
2021/10/03 08:55:22;;;;;;;19.90;13.93;;;15.60;99.90;16.00;96680.00;;;;5084190;28;20203;-73
2021/10/03 08:58:11;;;;;;;17.10;13.13;;;15.80;99.90;16.30;96685.00;;;;5083391;28;20211;-73
2021/10/03 09:01:02;;;;;;;18.37;14.77;;;15.90;99.90;16.50;96679.00;;;;5083818;28;20238;-73
2021/10/03 09:03:55;;;;;;;17.70;13.97;;;16.00;99.90;16.70;96682.00;;;;5082905;28;20196;-73
2021/10/03 09:07:01;;;;;;;19.67;13.47;;;16.20;99.90;16.90;96687.00;;;;5085493;28;20229;-73
2021/10/03 09:09:56;;;;;;;22.23;14.23;;;16.30;99.90;17.10;96687.00;;;;5082436;28;20187;-72
2021/10/03 09:12:45;;;;;;;21.87;13.90;;;16.50;99.90;17.30;96688.00;;;;5084520;28;20216;-73
2021/10/03 09:15:34;;;;;;;20.20;12.93;;;16.70;99.90;17.50;96692.00;;;;5085207;28;20198;-74
2021/10/03 09:18:36;;;;;;;19.37;11.77;;;16.90;99.90;17.50;96685.00;;;;5081808;28;20220;-74
2021/10/03 09:21:40;;;;;;;16.77;11.77;;;17.00;99.90;17.90;96682.00;;;;5073731;28;20220;-73
2021/10/03 09:24:42;;;;;;;13.87;11.70;;;17.20;99.90;17.60;96684.00;;;;5084188;28;20195;-73
2021/10/03 09:27:46;;;;;;;19.90;12.80;;;17.40;99.90;18.00;96680.00;;;;5083964;28;20223;-73
2021/10/03 09:30:36;;;;;;;15.80;11.67;;;17.60;99.90;18.10;96686.00;;;;5083292;28;20689;-73
2021/10/03 09:33:29;;;;;;;20.83;11.23;;;17.70;99.90;18.40;96675.00;;;;5084668;28;20209;-74
2021/10/03 09:36:22;;;;;;;16.43;11.73;;;17.80;99.90;18.10;96684.00;;;;5083070;28;20195;-74
2021/10/03 09:39:11;;;;;;;16.70;12.50;;;17.90;99.90;18.70;96686.00;;;;5083109;28;20289;-74
2021/10/03 09:42:13;;;;;;;12.67;11.00;;;18.00;99.90;18.90;96683.00;;;;5079663;28;20246;-74
2021/10/03 09:45:12;;;;;;;14.77;10.53;;;18.20;99.90;18.30;96676.00;;;;5084312;28;20782;-73
2021/10/03 09:48:05;;;;;;;14.87;11.70;;;18.30;99.90;18.10;96680.00;;;;5077261;28;20195;-72
2021/10/03 09:50:55;;;;;;;17.13;10.80;;;18.20;99.90;18.70;96672.00;;;;5076882;28;20210;-73
2021/10/03 09:53:45;;;;;;;16.30;11.33;;;18.20;99.90;19.00;96669.00;;;;5083424;28;20333;-73
2021/10/03 09:56:35;;;;;;;13.23;11.07;;;18.40;99.90;19.70;96672.00;;;;5084638;28;20276;-72
2021/10/03 09:59:24;;;;;;;13.77;10.43;;;18.60;99.90;18.80;96671.00;;;;5082954;28;20203;-72
2021/10/03 10:02:14;;;;;;;14.87;10.87;;;18.90;99.90;19.00;96663.00;;;;5080976;28;20705;-72
2021/10/03 10:05:03;;;;;;;13.37;10.07;;;18.90;99.90;19.70;96666.00;;;;5081924;28;20533;-72
2021/10/03 10:07:56;;;;;;;14.17;10.43;;;19.00;99.90;19.90;96670.00;;;;5078960;28;20196;-72
2021/10/03 10:10:45;;;;;;;15.30;10.50;;;19.20;99.90;20.40;96670.00;;;;5084496;28;20225;-73
2021/10/03 10:13:35;;;;;;;12.57;10.73;;;19.50;99.90;20.20;96659.00;;;;5083776;28;20203;-72
2021/10/03 10:16:35;;;;;;;14.40;11.03;;;19.70;99.90;20.30;96651.00;;;;5083229;28;20203;-72
2021/10/03 10:19:37;;;;;;;12.20;9.60;;;19.70;99.90;20.50;96653.00;;;;5083803;28;20228;-72
2021/10/03 10:22:35;;;;;;;12.40;10.33;;;19.90;99.90;21.30;96657.00;;;;5083537;28;20229;-73
2021/10/03 10:25:46;;;;;;;15.40;9.37;;;20.10;99.90;21.30;96651.00;;;;5078984;28;20666;-72
2021/10/03 10:28:37;;;;;;;11.57;8.93;;;20.50;99.90;21.10;96647.00;;;;5078582;28;20208;-74
2021/10/03 10:31:26;;;;;;;10.97;8.13;;;20.80;99.90;21.80;96643.00;;;;5076961;28;20222;-71
2021/10/03 10:34:14;;;;;;;10.43;8.90;;;21.10;99.90;22.40;96642.00;;;;5082523;28;20234;-75
2021/10/03 10:37:04;;;;;;;13.97;10.10;;;21.40;99.90;22.80;96641.00;;;;5084481;28;20199;-73
2021/10/03 10:40:27;;;;;;;9.53;7.60;;;21.80;99.90;23.10;96636.00;;;;5078197;28;20207;-75
2021/10/03 10:43:42;;;;;;;10.23;8.43;;;22.30;99.90;23.60;96647.00;;;;5080227;28;20208;-73
2021/10/03 10:46:58;;;;;;;8.70;7.80;;;22.80;99.90;23.70;96643.00;;;;5085892;28;20197;-70
2021/10/03 10:49:51;;;;;;;11.57;8.73;;;23.00;99.90;23.70;96625.00;;;;5075854;28;20205;-73
2021/10/03 10:52:40;;;;;;;10.63;7.13;;;23.20;99.90;24.30;96616.00;;;;5082538;28;20227;-74
2021/10/03 10:55:31;;;;;;;9.27;7.40;;;23.50;99.90;24.80;96616.00;;;;5082299;28;20210;-73
2021/10/03 10:58:20;;;;;;;10.00;8.17;;;23.90;99.90;24.70;96603.00;;;;5084626;28;20247;-71
2021/10/03 11:01:13;;;;;;;7.60;6.87;;;24.30;97.60;24.50;96605.00;;;;5086739;28;20240;-71
2021/10/03 11:04:03;;;;;;;7.43;6.33;;;24.70;93.30;25.40;96611.00;;;;5085796;28;20202;-70
2021/10/03 11:06:58;;;;;;;8.25;6.80;;;24.80;94.70;26.30;96603.00;;;;5086766;28;20398;-72
2021/10/03 11:10:02;;;;;;;7.03;5.80;;;25.00;94.90;27.00;96605.00;;;;5084628;28;20196;-72
2021/10/03 11:12:51;;;;;;;8.13;7.32;;;25.60;94.60;26.90;96596.00;;;;5082225;28;20394;-72
2021/10/03 11:15:40;;;;;;;7.63;6.82;;;26.10;90.70;26.10;96588.00;;;;5086344;28;20198;-72
2021/10/03 11:18:30;;;;;;;8.20;6.43;;;26.00;85.30;26.50;96583.00;;;;5077452;28;20247;-72
2021/10/03 11:21:24;;;;;;;6.82;6.13;;;26.20;84.50;26.10;96585.00;;;;5086528;28;20221;-72
2021/10/03 11:24:23;;;;;;;6.93;6.28;;;26.40;82.80;26.10;96580.00;;;;5088625;28;20214;-71
2021/10/03 11:27:13;;;;;;;6.70;6.00;;;26.30;79.80;27.10;96571.00;;;;5086215;28;20202;-72
2021/10/03 11:30:03;;;;;;;7.32;6.28;;;26.50;81.10;27.00;96569.00;;;;5087344;28;20264;-72
2021/10/03 11:32:52;;;;;;;6.60;5.60;;;26.70;78.80;26.50;96566.00;;;;5086039;28;20218;-71
2021/10/03 11:35:42;;;;;;;6.68;5.95;;;26.70;76.30;26.40;96560.00;;;;5087433;28;20232;-70
2021/10/03 11:38:31;;;;;;;8.48;5.35;;;26.80;75.80;25.30;96554.00;;;;5087158;28;20230;-71
2021/10/03 11:41:20;;;;;;;7.35;6.10;;;26.60;72.80;26.00;96548.00;;;;5085579;28;20230;-69
2021/10/03 11:44:19;;;;;;;6.47;5.65;;;26.20;74.40;27.60;96555.00;;;;5084251;28;20215;-72
2021/10/03 11:47:11;;;;;;;5.40;4.90;;;26.40;78.50;27.70;96550.00;;;;5088059;28;20199;-72
2021/10/03 11:50:01;;;;;;;6.35;5.72;;;26.60;76.60;28.60;96553.00;;;;5084282;28;20218;-71
2021/10/03 11:52:52;;;;;;;7.85;5.05;;;27.10;76.20;28.60;96546.00;;;;5088414;28;20223;-72
2021/10/03 11:55:43;;;;;;;6.60;4.75;;;27.60;74.20;29.10;96536.00;;;;5087500;28;20199;-72
2021/10/03 11:58:37;;;;;;;5.93;5.32;;;28.10;71.80;28.70;96527.00;;;;5086922;28;20219;-73
2021/10/03 12:01:32;;;;;;;6.10;5.50;;;28.50;69.20;28.30;96519.00;;;;5085701;28;20233;-72
2021/10/03 12:04:30;;;;;;;5.78;5.28;;;28.60;67.10;29.50;96531.00;;;;5076748;28;20199;-72
2021/10/03 12:07:18;;;;;;;6.20;4.85;;;28.80;67.50;30.00;96515.00;;;;5082107;28;20203;-71
2021/10/03 12:10:13;;;;;;;6.43;5.82;;;29.10;67.70;30.20;96498.00;;;;5086487;28;20230;-71
2021/10/03 12:13:11;;;;;;;8.05;5.97;;;29.40;64.90;30.30;96505.00;;;;5083287;28;20219;-71
2021/10/03 12:16:16;;;;;;;6.30;4.85;;;29.50;64.70;30.80;96491.00;;;;5083660;28;20207;-73
2021/10/03 12:19:07;;;;;;;8.38;4.97;;;29.80;64.20;29.40;96491.00;;;;5086398;28;20217;-73
2021/10/03 12:22:05;;;;;;;4.68;4.20;;;29.90;59.90;28.90;96489.00;;;;5087284;28;20227;-71
2021/10/03 12:24:56;;;;;;;6.28;3.97;;;29.30;61.60;27.10;96463.00;;;;5077055;28;20214;-71
2021/10/03 12:27:59;;;;;;;6.47;3.90;;;29.00;59.80;26.70;96457.00;;;;5086124;28;20199;-70
2021/10/03 12:30:52;;;;;;;4.82;3.47;;;27.90;61.10;28.20;96453.00;;;;5085454;28;20619;-71
2021/10/03 12:33:40;;;;;;;;;;;27.60;61.80;27.10;96453.00;;;;5087450;28;20043;-72
2021/10/03 12:36:30;;;;;;;4.40;4.00;;;27.30;61.20;27.30;96457.00;;;;5085343;28;20588;-71